sensor_id;sensor_type;location;lat;lon;timestamp;temperature;humidity
70550;DHT22;58101;48.658;2.328;2022-12-29T00:01:39;11.30;99.90
70550;DHT22;58101;48.658;2.328;2022-12-29T00:04:05;11.30;99.90
70550;DHT22;58101;48.658;2.328;2022-12-29T00:06:31;11.30;99.90
70550;DHT22;58101;48.658;2.328;2022-12-29T00:08:57;11.40;99.90
70550;DHT22;58101;48.658;2.328;2022-12-29T00:11:26;11.40;99.90
70550;DHT22;58101;48.658;2.328;2022-12-29T00:13:52;11.40;99.90
70550;DHT22;58101;48.658;2.328;2022-12-29T00:16:37;11.40;99.90
70550;DHT22;58101;48.658;2.328;2022-12-29T00:19:05;11.40;99.90
70550;DHT22;58101;48.658;2.328;2022-12-29T00:21:30;11.50;99.90
70550;DHT22;58101;48.658;2.328;2022-12-29T00:24:18;11.40;99.90
70550;DHT22;58101;48.658;2.328;2022-12-29T00:26:57;11.40;99.90
70550;DHT22;58101;48.658;2.328;2022-12-29T00:29:41;11.40;99.90
70550;DHT22;58101;48.658;2.328;2022-12-29T00:32:25;11.40;99.90
70550;DHT22;58101;48.658;2.328;2022-12-29T00:35:12;11.40;99.90
70550;DHT22;58101;48.658;2.328;2022-12-29T00:37:42;11.50;99.90
70550;DHT22;58101;48.658;2.328;2022-12-29T00:40:26;11.40;99.90
70550;DHT22;58101;48.658;2.328;2022-12-29T00:43:10;11.40;99.90
70550;DHT22;58101;48.658;2.328;2022-12-29T00:45:54;11.40;99.90
70550;DHT22;58101;48.658;2.328;2022-12-29T00:48:20;11.50;99.90
70550;DHT22;58101;48.658;2.328;2022-12-29T00:51:06;11.60;99.90
70550;DHT22;58101;48.658;2.328;2022-12-29T00:53:32;11.70;99.90
70550;DHT22;58101;48.658;2.328;2022-12-29T00:55:58;11.60;99.90
70550;DHT22;58101;48.658;2.328;2022-12-29T00:58:26;11.60;99.90
70550;DHT22;58101;48.658;2.328;2022-12-29T01:00:51;11.60;99.90
70550;DHT22;58101;48.658;2.328;2022-12-29T01:03:17;11.60;99.90
70550;DHT22;58101;48.658;2.328;2022-12-29T01:05:43;11.60;99.90
70550;DHT22;58101;48.658;2.328;2022-12-29T01:08:08;11.50;99.90
70550;DHT22;58101;48.658;2.328;2022-12-29T01:10:34;11.50;99.90
70550;DHT22;58101;48.658;2.328;2022-12-29T01:12:59;11.50;99.90
70550;DHT22;58101;48.658;2.328;2022-12-29T01:15:25;11.60;99.90
70550;DHT22;58101;48.658;2.328;2022-12-29T01:17:50;11.50;99.90
70550;DHT22;58101;48.658;2.328;2022-12-29T01:20:16;11.50;99.90
70550;DHT22;58101;48.658;2.328;2022-12-29T01:22:42;11.60;99.90
70550;DHT22;58101;48.658;2.328;2022-12-29T01:25:09;11.80;99.90
70550;DHT22;58101;48.658;2.328;2022-12-29T01:27:34;11.70;99.90
70550;DHT22;58101;48.658;2.328;2022-12-29T01:30:00;11.80;99.90
70550;DHT22;58101;48.658;2.328;2022-12-29T01:32:25;11.80;99.90
70550;DHT22;58101;48.658;2.328;2022-12-29T01:34:51;11.80;99.90
70550;DHT22;58101;48.658;2.328;2022-12-29T01:37:17;11.90;99.90
70550;DHT22;58101;48.658;2.328;2022-12-29T01:39:42;11.80;99.90
70550;DHT22;58101;48.658;2.328;2022-12-29T01:42:17;11.80;99.90
70550;DHT22;58101;48.658;2.328;2022-12-29T01:50:10;11.80;99.90
70550;DHT22;58101;48.658;2.328;2022-12-29T01:52:41;11.80;99.90
70550;DHT22;58101;48.658;2.328;2022-12-29T01:55:08;11.80;99.90
70550;DHT22;58101;48.658;2.328;2022-12-29T01:57:36;11.90;99.90
70550;DHT22;58101;48.658;2.328;2022-12-29T02:00:09;11.80;99.90
70550;DHT22;58101;48.658;2.328;2022-12-29T02:02:35;11.80;99.90
70550;DHT22;58101;48.658;2.328;2022-12-29T02:05:10;11.70;99.90
70550;DHT22;58101;48.658;2.328;2022-12-29T02:07:37;11.70;99.90
70550;DHT22;58101;48.658;2.328;2022-12-29T02:10:03;11.70;99.90
70550;DHT22;58101;48.658;2.328;2022-12-29T02:12:29;11.70;99.90
70550;DHT22;58101;48.658;2.328;2022-12-29T02:14:58;11.70;99.90
70550;DHT22;58101;48.658;2.328;2022-12-29T02:26:15;11.50;99.90
70550;DHT22;58101;48.658;2.328;2022-12-29T02:37:25;11.50;99.90
70550;DHT22;58101;48.658;2.328;2022-12-29T02:42:49;11.50;99.90
70550;DHT22;58101;48.658;2.328;2022-12-29T02:45:22;11.50;99.90
70550;DHT22;58101;48.658;2.328;2022-12-29T02:48:29;11.50;99.90
70550;DHT22;58101;48.658;2.328;2022-12-29T02:51:07;11.50;99.90
70550;DHT22;58101;48.658;2.328;2022-12-29T02:53:35;11.60;99.90
70550;DHT22;58101;48.658;2.328;2022-12-29T02:56:19;11.60;99.90
70550;DHT22;58101;48.658;2.328;2022-12-29T02:58:45;11.60;99.90
70550;DHT22;58101;48.658;2.328;2022-12-29T03:01:29;11.60;99.90
70550;DHT22;58101;48.658;2.328;2022-12-29T03:09:36;11.10;99.90
70550;DHT22;58101;48.658;2.328;2022-12-29T03:15:14;10.90;99.90
70550;DHT22;58101;48.658;2.328;2022-12-29T03:18:23;10.70;99.90
70550;DHT22;58101;48.658;2.328;2022-12-29T03:20:58;10.60;99.90
70550;DHT22;58101;48.658;2.328;2022-12-29T03:23:27;10.60;99.90
70550;DHT22;58101;48.658;2.328;2022-12-29T03:25:56;10.50;99.90
70550;DHT22;58101;48.658;2.328;2022-12-29T03:28:27;10.50;99.90
70550;DHT22;58101;48.658;2.328;2022-12-29T03:30:55;10.50;99.90
70550;DHT22;58101;48.658;2.328;2022-12-29T03:33:25;10.50;99.90
70550;DHT22;58101;48.658;2.328;2022-12-29T03:35:57;10.50;99.90
70550;DHT22;58101;48.658;2.328;2022-12-29T03:38:47;10.60;99.90
70550;DHT22;58101;48.658;2.328;2022-12-29T03:41:22;10.50;99.90
70550;DHT22;58101;48.658;2.328;2022-12-29T03:43:49;10.50;99.90
70550;DHT22;58101;48.658;2.328;2022-12-29T03:46:14;10.50;99.90
70550;DHT22;58101;48.658;2.328;2022-12-29T03:48:40;10.50;99.90
70550;DHT22;58101;48.658;2.328;2022-12-29T03:51:05;10.50;99.90
70550;DHT22;58101;48.658;2.328;2022-12-29T03:53:31;10.50;99.90
70550;DHT22;58101;48.658;2.328;2022-12-29T03:55:57;10.60;99.90
70550;DHT22;58101;48.658;2.328;2022-12-29T03:58:22;10.60;99.90
70550;DHT22;58101;48.658;2.328;2022-12-29T04:00:48;10.50;99.90
70550;DHT22;58101;48.658;2.328;2022-12-29T04:03:14;10.70;99.90
70550;DHT22;58101;48.658;2.328;2022-12-29T04:05:39;10.70;99.90
70550;DHT22;58101;48.658;2.328;2022-12-29T04:08:05;10.80;99.90
70550;DHT22;58101;48.658;2.328;2022-12-29T04:10:31;10.80;99.90
70550;DHT22;58101;48.658;2.328;2022-12-29T04:12:56;10.70;99.90
70550;DHT22;58101;48.658;2.328;2022-12-29T04:15:22;10.60;99.90
70550;DHT22;58101;48.658;2.328;2022-12-29T04:17:49;10.60;99.90
70550;DHT22;58101;48.658;2.328;2022-12-29T04:20:15;10.60;99.90
70550;DHT22;58101;48.658;2.328;2022-12-29T04:23:03;10.60;99.90
70550;DHT22;58101;48.658;2.328;2022-12-29T04:25:31;10.60;99.90
70550;DHT22;58101;48.658;2.328;2022-12-29T04:27:56;10.60;99.90
70550;DHT22;58101;48.658;2.328;2022-12-29T04:30:22;10.50;99.90
70550;DHT22;58101;48.658;2.328;2022-12-29T04:32:48;10.50;99.90
70550;DHT22;58101;48.658;2.328;2022-12-29T04:35:13;10.50;99.90
70550;DHT22;58101;48.658;2.328;2022-12-29T04:37:39;10.50;99.90
70550;DHT22;58101;48.658;2.328;2022-12-29T04:40:05;10.50;99.90
70550;DHT22;58101;48.658;2.328;2022-12-29T04:42:31;10.50;99.90
70550;DHT22;58101;48.658;2.328;2022-12-29T04:44:56;10.50;99.90
70550;DHT22;58101;48.658;2.328;2022-12-29T04:47:22;10.50;99.90
70550;DHT22;58101;48.658;2.328;2022-12-29T04:49:48;10.50;99.90
70550;DHT22;58101;48.658;2.328;2022-12-29T04:52:14;10.50;99.90
70550;DHT22;58101;48.658;2.328;2022-12-29T04:54:39;10.50;99.90
70550;DHT22;58101;48.658;2.328;2022-12-29T04:57:05;10.50;99.90
70550;DHT22;58101;48.658;2.328;2022-12-29T04:59:30;10.40;99.90
70550;DHT22;58101;48.658;2.328;2022-12-29T05:01:56;10.40;99.90
70550;DHT22;58101;48.658;2.328;2022-12-29T05:04:22;10.40;99.90
70550;DHT22;58101;48.658;2.328;2022-12-29T05:06:47;10.50;99.90
70550;DHT22;58101;48.658;2.328;2022-12-29T05:09:13;10.40;99.90
70550;DHT22;58101;48.658;2.328;2022-12-29T05:11:39;10.40;99.90
70550;DHT22;58101;48.658;2.328;2022-12-29T05:14:04;10.40;99.90
70550;DHT22;58101;48.658;2.328;2022-12-29T05:16:30;10.50;99.90
70550;DHT22;58101;48.658;2.328;2022-12-29T05:18:55;10.40;99.90
70550;DHT22;58101;48.658;2.328;2022-12-29T05:21:21;10.50;99.90
70550;DHT22;58101;48.658;2.328;2022-12-29T05:23:47;10.40;99.90
70550;DHT22;58101;48.658;2.328;2022-12-29T05:26:12;10.30;99.90
70550;DHT22;58101;48.658;2.328;2022-12-29T05:28:38;10.30;99.90
70550;DHT22;58101;48.658;2.328;2022-12-29T05:31:03;10.10;99.90
70550;DHT22;58101;48.658;2.328;2022-12-29T05:33:29;10.20;99.90
70550;DHT22;58101;48.658;2.328;2022-12-29T05:35:54;10.20;99.90
70550;DHT22;58101;48.658;2.328;2022-12-29T05:38:20;10.20;99.90
70550;DHT22;58101;48.658;2.328;2022-12-29T05:40:46;10.20;99.90
70550;DHT22;58101;48.658;2.328;2022-12-29T05:43:11;10.20;99.90
70550;DHT22;58101;48.658;2.328;2022-12-29T05:45:37;10.10;99.90
70550;DHT22;58101;48.658;2.328;2022-12-29T05:48:03;10.10;99.90
70550;DHT22;58101;48.658;2.328;2022-12-29T05:50:29;10.10;99.90
70550;DHT22;58101;48.658;2.328;2022-12-29T05:52:54;10.00;99.90
70550;DHT22;58101;48.658;2.328;2022-12-29T05:55:20;10.00;99.90
70550;DHT22;58101;48.658;2.328;2022-12-29T05:57:46;10.00;99.90
70550;DHT22;58101;48.658;2.328;2022-12-29T06:00:12;10.10;99.90
70550;DHT22;58101;48.658;2.328;2022-12-29T06:02:37;9.90;99.90
70550;DHT22;58101;48.658;2.328;2022-12-29T06:05:03;9.90;99.90
70550;DHT22;58101;48.658;2.328;2022-12-29T06:07:29;9.90;99.90
70550;DHT22;58101;48.658;2.328;2022-12-29T06:09:54;10.00;99.90
70550;DHT22;58101;48.658;2.328;2022-12-29T06:12:20;10.00;99.90
70550;DHT22;58101;48.658;2.328;2022-12-29T06:14:46;9.90;99.90
70550;DHT22;58101;48.658;2.328;2022-12-29T06:17:11;10.00;99.90
70550;DHT22;58101;48.658;2.328;2022-12-29T06:19:37;9.90;99.90
70550;DHT22;58101;48.658;2.328;2022-12-29T06:22:03;10.00;99.90
70550;DHT22;58101;48.658;2.328;2022-12-29T06:24:28;9.90;99.90
70550;DHT22;58101;48.658;2.328;2022-12-29T06:26:54;9.90;99.90
70550;DHT22;58101;48.658;2.328;2022-12-29T06:29:20;9.90;99.90
70550;DHT22;58101;48.658;2.328;2022-12-29T06:31:46;10.00;99.90
70550;DHT22;58101;48.658;2.328;2022-12-29T06:34:12;10.00;99.90
70550;DHT22;58101;48.658;2.328;2022-12-29T06:36:38;9.80;99.90
70550;DHT22;58101;48.658;2.328;2022-12-29T06:39:04;9.90;99.90
70550;DHT22;58101;48.658;2.328;2022-12-29T06:41:29;9.80;99.90
70550;DHT22;58101;48.658;2.328;2022-12-29T06:43:55;9.80;99.90
70550;DHT22;58101;48.658;2.328;2022-12-29T06:46:21;9.80;99.90
70550;DHT22;58101;48.658;2.328;2022-12-29T06:48:46;9.80;99.90
70550;DHT22;58101;48.658;2.328;2022-12-29T06:51:12;9.80;99.90
70550;DHT22;58101;48.658;2.328;2022-12-29T06:53:38;9.80;99.90
70550;DHT22;58101;48.658;2.328;2022-12-29T06:56:04;9.80;99.90
70550;DHT22;58101;48.658;2.328;2022-12-29T06:58:29;9.80;99.90
70550;DHT22;58101;48.658;2.328;2022-12-29T07:00:55;9.90;99.90
70550;DHT22;58101;48.658;2.328;2022-12-29T07:03:20;9.90;99.90
70550;DHT22;58101;48.658;2.328;2022-12-29T07:05:46;10.00;99.90
70550;DHT22;58101;48.658;2.328;2022-12-29T07:08:12;9.90;99.90
70550;DHT22;58101;48.658;2.328;2022-12-29T07:10:37;10.00;99.90
70550;DHT22;58101;48.658;2.328;2022-12-29T07:13:03;9.90;99.90
70550;DHT22;58101;48.658;2.328;2022-12-29T07:15:28;9.90;99.90
70550;DHT22;58101;48.658;2.328;2022-12-29T07:17:54;9.90;99.90
70550;DHT22;58101;48.658;2.328;2022-12-29T07:20:20;9.80;99.90
70550;DHT22;58101;48.658;2.328;2022-12-29T07:22:45;9.90;99.90
70550;DHT22;58101;48.658;2.328;2022-12-29T07:25:12;9.90;99.90
70550;DHT22;58101;48.658;2.328;2022-12-29T07:27:38;9.80;99.90
70550;DHT22;58101;48.658;2.328;2022-12-29T07:30:04;9.90;99.90
70550;DHT22;58101;48.658;2.328;2022-12-29T07:32:32;9.80;99.90
70550;DHT22;58101;48.658;2.328;2022-12-29T07:34:59;9.70;99.90
70550;DHT22;58101;48.658;2.328;2022-12-29T07:37:24;9.80;99.90
70550;DHT22;58101;48.658;2.328;2022-12-29T07:39:50;9.70;99.90
70550;DHT22;58101;48.658;2.328;2022-12-29T07:42:16;9.70;99.90
70550;DHT22;58101;48.658;2.328;2022-12-29T07:44:41;9.70;99.90
70550;DHT22;58101;48.658;2.328;2022-12-29T07:47:07;9.70;99.90
70550;DHT22;58101;48.658;2.328;2022-12-29T07:49:32;9.70;99.90
70550;DHT22;58101;48.658;2.328;2022-12-29T07:52:01;9.80;99.90
70550;DHT22;58101;48.658;2.328;2022-12-29T07:54:27;9.70;99.90
70550;DHT22;58101;48.658;2.328;2022-12-29T07:56:53;9.80;99.90
70550;DHT22;58101;48.658;2.328;2022-12-29T07:59:19;9.80;99.90
70550;DHT22;58101;48.658;2.328;2022-12-29T08:01:45;9.60;99.90
70550;DHT22;58101;48.658;2.328;2022-12-29T08:04:11;9.80;99.90
70550;DHT22;58101;48.658;2.328;2022-12-29T08:06:36;9.80;99.90
70550;DHT22;58101;48.658;2.328;2022-12-29T08:09:03;9.80;99.90
70550;DHT22;58101;48.658;2.328;2022-12-29T08:11:29;9.80;99.90
70550;DHT22;58101;48.658;2.328;2022-12-29T08:13:54;9.80;99.90
70550;DHT22;58101;48.658;2.328;2022-12-29T08:16:20;9.90;99.90
70550;DHT22;58101;48.658;2.328;2022-12-29T08:18:46;9.80;99.90
70550;DHT22;58101;48.658;2.328;2022-12-29T08:21:12;9.80;99.90
70550;DHT22;58101;48.658;2.328;2022-12-29T08:23:38;10.00;99.90
70550;DHT22;58101;48.658;2.328;2022-12-29T08:26:05;9.80;99.90
70550;DHT22;58101;48.658;2.328;2022-12-29T08:28:31;10.00;99.90
70550;DHT22;58101;48.658;2.328;2022-12-29T08:30:58;9.90;99.90
70550;DHT22;58101;48.658;2.328;2022-12-29T08:33:25;9.90;99.90
70550;DHT22;58101;48.658;2.328;2022-12-29T08:35:50;9.90;99.90
70550;DHT22;58101;48.658;2.328;2022-12-29T08:38:16;9.90;99.90
70550;DHT22;58101;48.658;2.328;2022-12-29T08:40:43;9.90;99.90
70550;DHT22;58101;48.658;2.328;2022-12-29T08:43:09;10.00;99.90
70550;DHT22;58101;48.658;2.328;2022-12-29T08:45:35;10.00;99.90
70550;DHT22;58101;48.658;2.328;2022-12-29T08:48:01;10.10;99.90
70550;DHT22;58101;48.658;2.328;2022-12-29T08:50:27;10.00;99.90
70550;DHT22;58101;48.658;2.328;2022-12-29T08:52:52;10.00;99.90
70550;DHT22;58101;48.658;2.328;2022-12-29T08:55:18;10.10;99.90
70550;DHT22;58101;48.658;2.328;2022-12-29T08:57:44;10.10;99.90
70550;DHT22;58101;48.658;2.328;2022-12-29T09:00:10;10.10;99.90
70550;DHT22;58101;48.658;2.328;2022-12-29T09:02:35;10.20;99.90
70550;DHT22;58101;48.658;2.328;2022-12-29T09:05:01;10.10;99.90
70550;DHT22;58101;48.658;2.328;2022-12-29T09:07:27;10.10;99.90
70550;DHT22;58101;48.658;2.328;2022-12-29T09:09:52;10.10;99.90
70550;DHT22;58101;48.658;2.328;2022-12-29T09:12:18;10.00;99.90
70550;DHT22;58101;48.658;2.328;2022-12-29T09:14:46;10.10;99.90
70550;DHT22;58101;48.658;2.328;2022-12-29T09:17:11;10.00;99.90
70550;DHT22;58101;48.658;2.328;2022-12-29T09:19:56;10.10;99.90
70550;DHT22;58101;48.658;2.328;2022-12-29T09:22:21;10.20;99.90
70550;DHT22;58101;48.658;2.328;2022-12-29T09:24:47;10.10;99.90
70550;DHT22;58101;48.658;2.328;2022-12-29T09:27:12;10.30;99.90
70550;DHT22;58101;48.658;2.328;2022-12-29T09:29:38;10.20;99.90
70550;DHT22;58101;48.658;2.328;2022-12-29T09:32:04;10.30;99.90
70550;DHT22;58101;48.658;2.328;2022-12-29T09:34:29;10.30;99.90
70550;DHT22;58101;48.658;2.328;2022-12-29T09:36:55;10.30;99.90
70550;DHT22;58101;48.658;2.328;2022-12-29T09:39:22;10.40;99.90
70550;DHT22;58101;48.658;2.328;2022-12-29T09:44:48;10.50;99.90
70550;DHT22;58101;48.658;2.328;2022-12-29T09:47:18;10.50;99.90
70550;DHT22;58101;48.658;2.328;2022-12-29T09:49:56;10.60;99.90
70550;DHT22;58101;48.658;2.328;2022-12-29T09:52:31;10.60;99.90
70550;DHT22;58101;48.658;2.328;2022-12-29T10:00:11;10.60;99.90
70550;DHT22;58101;48.658;2.328;2022-12-29T10:02:40;10.60;99.90
70550;DHT22;58101;48.658;2.328;2022-12-29T10:05:20;10.70;99.90
70550;DHT22;58101;48.658;2.328;2022-12-29T10:08:02;10.60;99.90
70550;DHT22;58101;48.658;2.328;2022-12-29T10:10:35;10.60;99.90
70550;DHT22;58101;48.658;2.328;2022-12-29T10:13:30;10.60;99.90
70550;DHT22;58101;48.658;2.328;2022-12-29T10:16:11;10.60;99.90
70550;DHT22;58101;48.658;2.328;2022-12-29T10:21:43;10.80;99.90
70550;DHT22;58101;48.658;2.328;2022-12-29T10:24:12;11.10;99.90
70550;DHT22;58101;48.658;2.328;2022-12-29T10:26:43;11.70;99.90
70550;DHT22;58101;48.658;2.328;2022-12-29T10:29:19;12.50;99.90
70550;DHT22;58101;48.658;2.328;2022-12-29T10:32:00;13.10;99.90
70550;DHT22;58101;48.658;2.328;2022-12-29T10:34:43;13.60;99.90
70550;DHT22;58101;48.658;2.328;2022-12-29T10:37:34;14.10;99.90
70550;DHT22;58101;48.658;2.328;2022-12-29T10:40:11;14.00;99.90
70550;DHT22;58101;48.658;2.328;2022-12-29T10:42:42;13.80;99.90
70550;DHT22;58101;48.658;2.328;2022-12-29T10:45:13;13.60;99.90
70550;DHT22;58101;48.658;2.328;2022-12-29T10:47:49;12.90;99.90
70550;DHT22;58101;48.658;2.328;2022-12-29T10:50:15;12.50;99.90
70550;DHT22;58101;48.658;2.328;2022-12-29T10:52:41;12.40;99.90
70550;DHT22;58101;48.658;2.328;2022-12-29T10:55:17;12.30;99.90
70550;DHT22;58101;48.658;2.328;2022-12-29T10:57:45;12.10;99.90
70550;DHT22;58101;48.658;2.328;2022-12-29T11:00:18;12.10;99.90
70550;DHT22;58101;48.658;2.328;2022-12-29T11:08:02;13.00;99.90
70550;DHT22;58101;48.658;2.328;2022-12-29T11:10:36;13.50;99.90
70550;DHT22;58101;48.658;2.328;2022-12-29T11:13:25;13.60;99.90
70550;DHT22;58101;48.658;2.328;2022-12-29T11:15:51;14.50;99.90
70550;DHT22;58101;48.658;2.328;2022-12-29T11:18:35;15.10;99.90
70550;DHT22;58101;48.658;2.328;2022-12-29T11:21:05;14.90;96.00
70550;DHT22;58101;48.658;2.328;2022-12-29T11:23:35;14.20;98.60
70550;DHT22;58101;48.658;2.328;2022-12-29T11:28:40;13.00;99.90
70550;DHT22;58101;48.658;2.328;2022-12-29T11:31:07;12.70;99.90
70550;DHT22;58101;48.658;2.328;2022-12-29T11:33:38;12.40;99.90
70550;DHT22;58101;48.658;2.328;2022-12-29T11:36:19;12.10;99.90
70550;DHT22;58101;48.658;2.328;2022-12-29T11:38:51;12.10;99.90
70550;DHT22;58101;48.658;2.328;2022-12-29T11:41:26;11.90;99.90
70550;DHT22;58101;48.658;2.328;2022-12-29T11:43:55;12.00;99.90
70550;DHT22;58101;48.658;2.328;2022-12-29T11:46:30;12.10;99.90
70550;DHT22;58101;48.658;2.328;2022-12-29T11:48:58;11.90;99.90
70550;DHT22;58101;48.658;2.328;2022-12-29T11:51:29;11.90;99.90
70550;DHT22;58101;48.658;2.328;2022-12-29T11:54:00;12.30;99.90
70550;DHT22;58101;48.658;2.328;2022-12-29T12:05:08;14.80;99.90
70550;DHT22;58101;48.658;2.328;2022-12-29T12:07:44;14.40;95.40
70550;DHT22;58101;48.658;2.328;2022-12-29T12:10:21;13.90;96.30
70550;DHT22;58101;48.658;2.328;2022-12-29T12:15:51;12.90;99.90
70550;DHT22;58101;48.658;2.328;2022-12-29T12:21:04;12.40;99.90
70550;DHT22;58101;48.658;2.328;2022-12-29T12:26:21;12.00;99.90
70550;DHT22;58101;48.658;2.328;2022-12-29T12:29:04;11.90;99.90
70550;DHT22;58101;48.658;2.328;2022-12-29T12:34:35;11.80;99.90
70550;DHT22;58101;48.658;2.328;2022-12-29T12:50:56;11.50;99.90
70550;DHT22;58101;48.658;2.328;2022-12-29T12:56:16;11.40;99.90
70550;DHT22;58101;48.658;2.328;2022-12-29T12:59:18;11.50;99.90
70550;DHT22;58101;48.658;2.328;2022-12-29T13:05:16;11.50;99.90
70550;DHT22;58101;48.658;2.328;2022-12-29T13:10:54;11.40;99.90
70550;DHT22;58101;48.658;2.328;2022-12-29T13:24:39;11.40;99.90
70550;DHT22;58101;48.658;2.328;2022-12-29T13:40:39;11.40;99.90
70550;DHT22;58101;48.658;2.328;2022-12-29T13:43:07;11.40;99.90
70550;DHT22;58101;48.658;2.328;2022-12-29T13:45:33;11.40;99.90
70550;DHT22;58101;48.658;2.328;2022-12-29T13:48:07;11.50;99.90
70550;DHT22;58101;48.658;2.328;2022-12-29T13:50:37;11.50;99.90
70550;DHT22;58101;48.658;2.328;2022-12-29T13:53:17;11.60;99.90
70550;DHT22;58101;48.658;2.328;2022-12-29T13:58:34;11.70;99.90
70550;DHT22;58101;48.658;2.328;2022-12-29T14:01:14;11.80;99.90
70550;DHT22;58101;48.658;2.328;2022-12-29T14:03:57;11.70;99.90
70550;DHT22;58101;48.658;2.328;2022-12-29T14:11:30;11.90;99.90
70550;DHT22;58101;48.658;2.328;2022-12-29T14:13:56;11.80;99.90
70550;DHT22;58101;48.658;2.328;2022-12-29T14:16:32;12.00;99.90
70550;DHT22;58101;48.658;2.328;2022-12-29T14:19:26;11.80;99.90
70550;DHT22;58101;48.658;2.328;2022-12-29T14:22:04;11.70;99.90
70550;DHT22;58101;48.658;2.328;2022-12-29T14:27:00;11.50;99.90
70550;DHT22;58101;48.658;2.328;2022-12-29T14:31:54;11.40;99.90
70550;DHT22;58101;48.658;2.328;2022-12-29T14:39:37;11.40;99.90
70550;DHT22;58101;48.658;2.328;2022-12-29T14:42:13;11.40;99.90
70550;DHT22;58101;48.658;2.328;2022-12-29T14:45:02;11.40;99.90
70550;DHT22;58101;48.658;2.328;2022-12-29T14:47:42;11.50;99.90
70550;DHT22;58101;48.658;2.328;2022-12-29T14:53:01;11.50;99.90
70550;DHT22;58101;48.658;2.328;2022-12-29T14:55:45;11.50;99.00
70550;DHT22;58101;48.658;2.328;2022-12-29T15:00:50;11.50;97.30
70550;DHT22;58101;48.658;2.328;2022-12-29T15:03:25;11.50;96.40
70550;DHT22;58101;48.658;2.328;2022-12-29T15:06:19;11.40;97.70
70550;DHT22;58101;48.658;2.328;2022-12-29T15:08:51;11.40;98.30
70550;DHT22;58101;48.658;2.328;2022-12-29T15:11:24;11.20;99.10
70550;DHT22;58101;48.658;2.328;2022-12-29T15:13:50;11.30;99.90
70550;DHT22;58101;48.658;2.328;2022-12-29T15:16:34;11.30;99.90
70550;DHT22;58101;48.658;2.328;2022-12-29T15:19:02;11.20;99.90
70550;DHT22;58101;48.658;2.328;2022-12-29T15:21:32;11.10;99.90
70550;DHT22;58101;48.658;2.328;2022-12-29T15:23:59;11.10;99.90
70550;DHT22;58101;48.658;2.328;2022-12-29T15:26:39;11.00;99.90
70550;DHT22;58101;48.658;2.328;2022-12-29T15:29:25;11.10;99.90
70550;DHT22;58101;48.658;2.328;2022-12-29T15:31:51;11.00;99.90
70550;DHT22;58101;48.658;2.328;2022-12-29T15:34:20;11.00;99.90
70550;DHT22;58101;48.658;2.328;2022-12-29T15:36:49;10.90;99.90
70550;DHT22;58101;48.658;2.328;2022-12-29T15:39:28;10.80;99.90
70550;DHT22;58101;48.658;2.328;2022-12-29T15:44:42;10.70;99.90
70550;DHT22;58101;48.658;2.328;2022-12-29T15:47:24;10.60;99.90
70550;DHT22;58101;48.658;2.328;2022-12-29T15:50:31;10.50;99.90
70550;DHT22;58101;48.658;2.328;2022-12-29T15:52:50;10.50;99.90
70550;DHT22;58101;48.658;2.328;2022-12-29T15:57:49;10.40;99.90
70550;DHT22;58101;48.658;2.328;2022-12-29T16:00:23;10.40;99.90
70550;DHT22;58101;48.658;2.328;2022-12-29T16:02:51;10.30;99.90
70550;DHT22;58101;48.658;2.328;2022-12-29T16:05:18;10.20;99.90
70550;DHT22;58101;48.658;2.328;2022-12-29T16:07:55;10.20;99.90
70550;DHT22;58101;48.658;2.328;2022-12-29T16:10:41;10.30;99.90
70550;DHT22;58101;48.658;2.328;2022-12-29T16:13:27;10.10;99.90
70550;DHT22;58101;48.658;2.328;2022-12-29T16:16:02;10.00;99.90
70550;DHT22;58101;48.658;2.328;2022-12-29T16:18:36;10.00;99.90
70550;DHT22;58101;48.658;2.328;2022-12-29T16:21:04;9.90;99.90
70550;DHT22;58101;48.658;2.328;2022-12-29T16:23:31;9.90;99.90
70550;DHT22;58101;48.658;2.328;2022-12-29T16:25:57;9.90;99.90
70550;DHT22;58101;48.658;2.328;2022-12-29T16:28:41;9.80;99.90
70550;DHT22;58101;48.658;2.328;2022-12-29T16:31:22;9.70;99.90
70550;DHT22;58101;48.658;2.328;2022-12-29T16:33:54;9.70;99.90
70550;DHT22;58101;48.658;2.328;2022-12-29T16:38:50;9.60;99.90
70550;DHT22;58101;48.658;2.328;2022-12-29T16:41:31;9.60;99.90
70550;DHT22;58101;48.658;2.328;2022-12-29T16:44:16;9.50;99.90
70550;DHT22;58101;48.658;2.328;2022-12-29T16:49:21;9.40;99.90
70550;DHT22;58101;48.658;2.328;2022-12-29T16:51:46;9.40;99.90
70550;DHT22;58101;48.658;2.328;2022-12-29T16:54:31;9.40;99.90
70550;DHT22;58101;48.658;2.328;2022-12-29T16:56:57;9.30;99.90
70550;DHT22;58101;48.658;2.328;2022-12-29T17:01:48;9.20;99.90
70550;DHT22;58101;48.658;2.328;2022-12-29T17:04:14;9.20;99.90
70550;DHT22;58101;48.658;2.328;2022-12-29T17:06:40;9.20;99.90
70550;DHT22;58101;48.658;2.328;2022-12-29T17:09:24;9.30;99.90
70550;DHT22;58101;48.658;2.328;2022-12-29T17:11:54;9.10;99.90
70550;DHT22;58101;48.658;2.328;2022-12-29T17:14:40;9.10;99.90
70550;DHT22;58101;48.658;2.328;2022-12-29T17:17:17;9.10;99.90
70550;DHT22;58101;48.658;2.328;2022-12-29T17:19:51;9.00;99.90
70550;DHT22;58101;48.658;2.328;2022-12-29T17:22:25;9.00;99.90
70550;DHT22;58101;48.658;2.328;2022-12-29T17:24:57;9.10;99.90
70550;DHT22;58101;48.658;2.328;2022-12-29T17:27:29;9.00;99.90
70550;DHT22;58101;48.658;2.328;2022-12-29T17:29:58;9.00;99.90
70550;DHT22;58101;48.658;2.328;2022-12-29T17:32:25;9.00;99.90
70550;DHT22;58101;48.658;2.328;2022-12-29T17:34:51;8.90;99.90
70550;DHT22;58101;48.658;2.328;2022-12-29T17:37:28;8.90;99.90
70550;DHT22;58101;48.658;2.328;2022-12-29T17:39:53;8.90;99.90
70550;DHT22;58101;48.658;2.328;2022-12-29T17:42:19;8.90;99.90
70550;DHT22;58101;48.658;2.328;2022-12-29T17:44:45;8.80;99.90
70550;DHT22;58101;48.658;2.328;2022-12-29T17:47:14;8.80;99.90
70550;DHT22;58101;48.658;2.328;2022-12-29T17:49:40;8.80;99.90
70550;DHT22;58101;48.658;2.328;2022-12-29T17:52:13;8.80;99.90
70550;DHT22;58101;48.658;2.328;2022-12-29T17:54:51;8.80;99.90
70550;DHT22;58101;48.658;2.328;2022-12-29T17:57:19;8.80;99.90
70550;DHT22;58101;48.658;2.328;2022-12-29T17:59:45;8.70;99.90
70550;DHT22;58101;48.658;2.328;2022-12-29T18:04:47;8.70;99.90
70550;DHT22;58101;48.658;2.328;2022-12-29T18:07:12;8.70;99.90
70550;DHT22;58101;48.658;2.328;2022-12-29T18:09:38;8.70;99.90
70550;DHT22;58101;48.658;2.328;2022-12-29T18:12:04;8.60;99.90
70550;DHT22;58101;48.658;2.328;2022-12-29T18:14:30;8.60;99.90
70550;DHT22;58101;48.658;2.328;2022-12-29T18:16:56;8.60;99.90
70550;DHT22;58101;48.658;2.328;2022-12-29T18:19:21;8.60;99.90
70550;DHT22;58101;48.658;2.328;2022-12-29T18:21:47;8.60;99.90
70550;DHT22;58101;48.658;2.328;2022-12-29T18:24:13;8.60;99.90
70550;DHT22;58101;48.658;2.328;2022-12-29T18:26:39;8.60;99.90
70550;DHT22;58101;48.658;2.328;2022-12-29T18:29:05;8.60;99.90
70550;DHT22;58101;48.658;2.328;2022-12-29T18:31:32;8.60;99.90
70550;DHT22;58101;48.658;2.328;2022-12-29T18:34:00;8.50;99.90